sensor_id;sensor_type;location;lat;lon;timestamp;pressure;altitude;pressure_sealevel;temperature;humidity
29239;BME280;16267;48.194;11.546;2022-10-31T00:01:39;96442.53;;;13.06;80.93
29239;BME280;16267;48.194;11.546;2022-10-31T00:04:11;96444.09;;;13.04;81.52
29239;BME280;16267;48.194;11.546;2022-10-31T00:06:37;96444.47;;;13.06;81.24
29239;BME280;16267;48.194;11.546;2022-10-31T00:09:04;96443.34;;;13.03;81.20
29239;BME280;16267;48.194;11.546;2022-10-31T00:11:30;96444.53;;;12.99;80.77
29239;BME280;16267;48.194;11.546;2022-10-31T00:13:59;96440.72;;;12.96;81.26
29239;BME280;16267;48.194;11.546;2022-10-31T00:16:26;96441.13;;;12.94;81.19
29239;BME280;16267;48.194;11.546;2022-10-31T00:19:01;96439.66;;;12.90;80.75
29239;BME280;16267;48.194;11.546;2022-10-31T00:21:27;96440.03;;;12.88;81.50
29239;BME280;16267;48.194;11.546;2022-10-31T00:23:54;96441.97;;;12.88;81.57
29239;BME280;16267;48.194;11.546;2022-10-31T00:26:20;96433.88;;;12.88;81.52
29239;BME280;16267;48.194;11.546;2022-10-31T00:28:46;96440.44;;;12.87;81.30
29239;BME280;16267;48.194;11.546;2022-10-31T00:31:24;96440.84;;;12.85;81.34
29239;BME280;16267;48.194;11.546;2022-10-31T00:33:55;96444.31;;;12.86;81.41
29239;BME280;16267;48.194;11.546;2022-10-31T00:36:21;96436.25;;;12.86;81.05
29239;BME280;16267;48.194;11.546;2022-10-31T00:38:47;96430.88;;;12.82;80.71
29239;BME280;16267;48.194;11.546;2022-10-31T00:41:15;96436.31;;;12.79;81.24
29239;BME280;16267;48.194;11.546;2022-10-31T00:43:42;96438.25;;;12.78;81.48
29239;BME280;16267;48.194;11.546;2022-10-31T00:46:10;96439.41;;;12.77;81.59
29239;BME280;16267;48.194;11.546;2022-10-31T00:48:35;96445.56;;;12.78;81.67
29239;BME280;16267;48.194;11.546;2022-10-31T00:51:01;96435.19;;;12.76;81.36
29239;BME280;16267;48.194;11.546;2022-10-31T00:53:27;96432.19;;;12.70;81.04
29239;BME280;16267;48.194;11.546;2022-10-31T00:55:53;96438.75;;;12.69;81.80
29239;BME280;16267;48.194;11.546;2022-10-31T00:58:19;96440.66;;;12.69;81.57
29239;BME280;16267;48.194;11.546;2022-10-31T01:00:48;96442.22;;;12.66;81.71
29239;BME280;16267;48.194;11.546;2022-10-31T01:03:26;96436.06;;;12.66;81.54
29239;BME280;16267;48.194;11.546;2022-10-31T01:06:09;96434.56;;;12.65;81.33
29239;BME280;16267;48.194;11.546;2022-10-31T01:08:36;96435.31;;;12.65;81.49
29239;BME280;16267;48.194;11.546;2022-10-31T01:11:10;96433.03;;;12.64;81.60
29239;BME280;16267;48.194;11.546;2022-10-31T01:13:36;96429.16;;;12.65;81.51
29239;BME280;16267;48.194;11.546;2022-10-31T01:16:09;96439.56;;;12.63;81.46
29239;BME280;16267;48.194;11.546;2022-10-31T01:18:36;96431.50;;;12.63;81.23
29239;BME280;16267;48.194;11.546;2022-10-31T01:21:07;96429.59;;;12.60;81.26
29239;BME280;16267;48.194;11.546;2022-10-31T01:23:34;96424.63;;;12.58;81.30
29239;BME280;16267;48.194;11.546;2022-10-31T01:26:06;96436.56;;;12.57;81.45
29239;BME280;16267;48.194;11.546;2022-10-31T01:28:37;96435.44;;;12.55;81.68
29239;BME280;16267;48.194;11.546;2022-10-31T01:31:07;96435.09;;;12.53;81.51
29239;BME280;16267;48.194;11.546;2022-10-31T01:33:33;96445.88;;;12.49;81.42
29239;BME280;16267;48.194;11.546;2022-10-31T01:36:00;96438.59;;;12.46;81.94
29239;BME280;16267;48.194;11.546;2022-10-31T01:38:26;96441.72;;;12.44;81.78
29239;BME280;16267;48.194;11.546;2022-10-31T01:40:55;96441.72;;;12.44;81.75
29239;BME280;16267;48.194;11.546;2022-10-31T01:43:21;96440.56;;;12.42;81.69
29239;BME280;16267;48.194;11.546;2022-10-31T01:45:52;96437.50;;;12.40;81.53
29239;BME280;16267;48.194;11.546;2022-10-31T01:48:24;96437.91;;;12.38;81.97
29239;BME280;16267;48.194;11.546;2022-10-31T01:50:54;96436.00;;;12.35;81.64
29239;BME280;16267;48.194;11.546;2022-10-31T01:53:21;96436.44;;;12.34;81.59
29239;BME280;16267;48.194;11.546;2022-10-31T01:55:48;96436.81;;;12.32;81.54
29239;BME280;16267;48.194;11.546;2022-10-31T01:58:24;96433.75;;;12.30;81.76
29239;BME280;16267;48.194;11.546;2022-10-31T02:00:58;96434.94;;;12.29;81.83
29239;BME280;16267;48.194;11.546;2022-10-31T02:03:26;96434.56;;;12.27;81.80
29239;BME280;16267;48.194;11.546;2022-10-31T02:05:54;96430.72;;;12.24;81.62
29239;BME280;16267;48.194;11.546;2022-10-31T02:08:31;96433.84;;;12.23;81.81
29239;BME280;16267;48.194;11.546;2022-10-31T02:11:00;96422.69;;;12.21;82.06
29239;BME280;16267;48.194;11.546;2022-10-31T02:13:28;96431.19;;;12.19;81.92
29239;BME280;16267;48.194;11.546;2022-10-31T02:15:57;96434.66;;;12.16;82.07
29239;BME280;16267;48.194;11.546;2022-10-31T02:18:30;96434.31;;;12.14;82.33
29239;BME280;16267;48.194;11.546;2022-10-31T02:21:23;96423.56;;;12.11;82.42
29239;BME280;16267;48.194;11.546;2022-10-31T02:24:32;96426.66;;;12.09;82.45
29239;BME280;16267;48.194;11.546;2022-10-31T02:32:46;96430.91;;;12.07;82.43
29239;BME280;16267;48.194;11.546;2022-10-31T02:35:54;96432.09;;;12.05;82.39
29239;BME280;16267;48.194;11.546;2022-10-31T02:41:37;96429.41;;;12.02;82.42
29239;BME280;16267;48.194;11.546;2022-10-31T02:44:38;96433.66;;;11.99;82.70
29239;BME280;16267;48.194;11.546;2022-10-31T02:47:22;96442.53;;;11.96;82.88
29239;BME280;16267;48.194;11.546;2022-10-31T02:52:32;96439.47;;;11.94;83.09
29239;BME280;16267;48.194;11.546;2022-10-31T02:55:08;96437.19;;;11.93;82.96
29239;BME280;16267;48.194;11.546;2022-10-31T02:57:35;96436.44;;;11.92;82.87
29239;BME280;16267;48.194;11.546;2022-10-31T03:00:06;96438.75;;;11.90;82.95
29239;BME280;16267;48.194;11.546;2022-10-31T03:08:46;96436.84;;;11.87;83.56
29239;BME280;16267;48.194;11.546;2022-10-31T03:11:17;96433.41;;;11.87;83.34
29239;BME280;16267;48.194;11.546;2022-10-31T03:14:05;96428.78;;;11.87;83.45
29239;BME280;16267;48.194;11.546;2022-10-31T03:17:02;96428.78;;;11.87;83.21
29239;BME280;16267;48.194;11.546;2022-10-31T03:19:37;96430.31;;;11.84;83.28
29239;BME280;16267;48.194;11.546;2022-10-31T03:22:22;96441.44;;;11.83;83.45
29239;BME280;16267;48.194;11.546;2022-10-31T03:24:50;96432.63;;;11.82;83.21
29239;BME280;16267;48.194;11.546;2022-10-31T03:27:23;96428.44;;;11.78;83.09
29239;BME280;16267;48.194;11.546;2022-10-31T03:29:51;96430.34;;;11.77;83.18
29239;BME280;16267;48.194;11.546;2022-10-31T03:32:29;96430.34;;;11.77;83.84
29239;BME280;16267;48.194;11.546;2022-10-31T03:35:01;96436.16;;;11.76;83.65
29239;BME280;16267;48.194;11.546;2022-10-31T03:37:30;96429.59;;;11.77;83.51
29239;BME280;16267;48.194;11.546;2022-10-31T03:39:59;96430.00;;;11.75;83.60
29239;BME280;16267;48.194;11.546;2022-10-31T03:42:29;96434.59;;;11.75;83.13
29239;BME280;16267;48.194;11.546;2022-10-31T03:47:27;96428.88;;;11.73;83.23
29239;BME280;16267;48.194;11.546;2022-10-31T03:49:54;96427.31;;;11.72;83.55
29239;BME280;16267;48.194;11.546;2022-10-31T03:52:53;96433.13;;;11.70;83.23
29239;BME280;16267;48.194;11.546;2022-10-31T03:55:31;96435.03;;;11.70;83.49
29239;BME280;16267;48.194;11.546;2022-10-31T03:58:03;96434.25;;;11.69;83.14
29239;BME280;16267;48.194;11.546;2022-10-31T04:00:32;96436.94;;;11.69;83.59
29239;BME280;16267;48.194;11.546;2022-10-31T04:03:14;96433.50;;;11.69;83.14
29239;BME280;16267;48.194;11.546;2022-10-31T04:05:44;96435.84;;;11.67;83.31
29239;BME280;16267;48.194;11.546;2022-10-31T04:08:16;96437.38;;;11.64;83.01
29239;BME280;16267;48.194;11.546;2022-10-31T04:10:43;96441.63;;;11.61;83.27
29239;BME280;16267;48.194;11.546;2022-10-31T04:13:16;96436.63;;;11.60;83.25
29239;BME280;16267;48.194;11.546;2022-10-31T04:15:44;96437.81;;;11.59;83.07
29239;BME280;16267;48.194;11.546;2022-10-31T04:18:11;96432.81;;;11.57;83.20
29239;BME280;16267;48.194;11.546;2022-10-31T04:20:40;96435.91;;;11.56;83.33
29239;BME280;16267;48.194;11.546;2022-10-31T04:23:18;96432.44;;;11.55;83.16
29239;BME280;16267;48.194;11.546;2022-10-31T04:25:44;96439.75;;;11.55;83.38
29239;BME280;16267;48.194;11.546;2022-10-31T04:28:10;96437.47;;;11.53;82.96
29239;BME280;16267;48.194;11.546;2022-10-31T04:30:36;96438.59;;;11.52;82.81
29239;BME280;16267;48.194;11.546;2022-10-31T04:33:02;96441.69;;;11.51;82.92
29239;BME280;16267;48.194;11.546;2022-10-31T04:35:27;96435.19;;;11.48;82.66
29239;BME280;16267;48.194;11.546;2022-10-31T04:37:53;96435.22;;;11.45;83.04
29239;BME280;16267;48.194;11.546;2022-10-31T04:40:19;96437.91;;;11.45;83.18
29239;BME280;16267;48.194;11.546;2022-10-31T04:42:50;96443.28;;;11.41;82.94
29239;BME280;16267;48.194;11.546;2022-10-31T04:45:15;96441.38;;;11.38;83.32
29239;BME280;16267;48.194;11.546;2022-10-31T04:47:41;96445.25;;;11.37;83.44
29239;BME280;16267;48.194;11.546;2022-10-31T04:50:07;96444.50;;;11.36;83.40
29239;BME280;16267;48.194;11.546;2022-10-31T04:52:43;96451.00;;;11.35;83.37
29239;BME280;16267;48.194;11.546;2022-10-31T04:55:10;96442.94;;;11.35;83.23
29239;BME280;16267;48.194;11.546;2022-10-31T04:57:48;96443.72;;;11.32;82.63
29239;BME280;16267;48.194;11.546;2022-10-31T05:00:17;96450.66;;;11.30;82.88
29239;BME280;16267;48.194;11.546;2022-10-31T05:02:49;96448.75;;;11.27;82.99
29239;BME280;16267;48.194;11.546;2022-10-31T05:05:18;96452.59;;;11.26;83.09
29239;BME280;16267;48.194;11.546;2022-10-31T05:07:46;96439.56;;;11.24;83.13
29239;BME280;16267;48.194;11.546;2022-10-31T05:10:15;96439.59;;;11.21;83.04
29239;BME280;16267;48.194;11.546;2022-10-31T05:12:52;96435.75;;;11.18;83.20
29239;BME280;16267;48.194;11.546;2022-10-31T05:15:20;96441.13;;;11.18;83.36
29239;BME280;16267;48.194;11.546;2022-10-31T05:17:48;96435.75;;;11.18;83.42
29239;BME280;16267;48.194;11.546;2022-10-31T05:20:16;96431.56;;;11.17;83.67
29239;BME280;16267;48.194;11.546;2022-10-31T05:22:47;96430.75;;;11.16;83.32
29239;BME280;16267;48.194;11.546;2022-10-31T05:25:14;96423.09;;;11.15;83.55
29239;BME280;16267;48.194;11.546;2022-10-31T05:27:46;96424.25;;;11.14;83.46
29239;BME280;16267;48.194;11.546;2022-10-31T05:30:14;96419.66;;;11.11;82.57
29239;BME280;16267;48.194;11.546;2022-10-31T05:32:44;96418.19;;;11.06;82.78
29239;BME280;16267;48.194;11.546;2022-10-31T05:35:16;96427.03;;;11.03;82.65
29239;BME280;16267;48.194;11.546;2022-10-31T05:37:43;96423.94;;;11.01;83.05
29239;BME280;16267;48.194;11.546;2022-10-31T05:40:11;96423.56;;;10.99;83.31
29239;BME280;16267;48.194;11.546;2022-10-31T05:42:42;96424.75;;;10.98;82.79
29239;BME280;16267;48.194;11.546;2022-10-31T05:45:10;96421.28;;;10.98;83.29
29239;BME280;16267;48.194;11.546;2022-10-31T05:47:37;96419.38;;;10.94;83.07
29239;BME280;16267;48.194;11.546;2022-10-31T05:50:03;96423.97;;;10.94;82.99
29239;BME280;16267;48.194;11.546;2022-10-31T05:52:29;96423.63;;;10.92;82.96
29239;BME280;16267;48.194;11.546;2022-10-31T05:54:55;96428.59;;;10.93;83.01
29239;BME280;16267;48.194;11.546;2022-10-31T05:57:21;96417.13;;;10.89;82.97
29239;BME280;16267;48.194;11.546;2022-10-31T05:59:47;96417.13;;;10.89;83.13
29239;BME280;16267;48.194;11.546;2022-10-31T06:02:12;96415.56;;;10.88;82.92
29239;BME280;16267;48.194;11.546;2022-10-31T06:04:38;96423.63;;;10.88;82.90
29239;BME280;16267;48.194;11.546;2022-10-31T06:07:04;96426.72;;;10.87;83.12
29239;BME280;16267;48.194;11.546;2022-10-31T06:09:30;96416.34;;;10.85;83.54
29239;BME280;16267;48.194;11.546;2022-10-31T06:11:55;96425.94;;;10.86;83.38
29239;BME280;16267;48.194;11.546;2022-10-31T06:14:21;96420.97;;;10.85;83.62
29239;BME280;16267;48.194;11.546;2022-10-31T06:16:47;96430.94;;;10.84;83.24
29239;BME280;16267;48.194;11.546;2022-10-31T06:19:12;96430.94;;;10.84;83.22
29239;BME280;16267;48.194;11.546;2022-10-31T06:21:38;96433.25;;;10.82;83.24
29239;BME280;16267;48.194;11.546;2022-10-31T06:24:04;96433.25;;;10.82;83.04
29239;BME280;16267;48.194;11.546;2022-10-31T06:26:30;96431.31;;;10.83;83.32
29239;BME280;16267;48.194;11.546;2022-10-31T06:28:56;96436.69;;;10.83;83.30
29239;BME280;16267;48.194;11.546;2022-10-31T06:31:21;96439.38;;;10.83;83.36
29239;BME280;16267;48.194;11.546;2022-10-31T06:33:47;96442.06;;;10.83;82.99
29239;BME280;16267;48.194;11.546;2022-10-31T06:36:13;96431.31;;;10.83;83.15
29239;BME280;16267;48.194;11.546;2022-10-31T06:38:39;96429.03;;;10.81;83.22
29239;BME280;16267;48.194;11.546;2022-10-31T06:41:05;96428.25;;;10.81;83.50
29239;BME280;16267;48.194;11.546;2022-10-31T06:43:32;96425.94;;;10.83;83.64
29239;BME280;16267;48.194;11.546;2022-10-31T06:46:03;96425.94;;;10.83;83.81
29239;BME280;16267;48.194;11.546;2022-10-31T06:48:29;96435.56;;;10.84;83.74
29239;BME280;16267;48.194;11.546;2022-10-31T06:50:59;96432.47;;;10.85;84.07
29239;BME280;16267;48.194;11.546;2022-10-31T06:53:26;96429.78;;;10.85;84.10
29239;BME280;16267;48.194;11.546;2022-10-31T06:55:52;96439.38;;;10.86;84.27
29239;BME280;16267;48.194;11.546;2022-10-31T06:58:18;96431.31;;;10.86;84.26
29239;BME280;16267;48.194;11.546;2022-10-31T07:00:44;96440.13;;;10.87;84.21
29239;BME280;16267;48.194;11.546;2022-10-31T07:03:12;96437.03;;;10.88;84.20
29239;BME280;16267;48.194;11.546;2022-10-31T07:05:38;96440.13;;;10.90;84.34
29239;BME280;16267;48.194;11.546;2022-10-31T07:08:08;96438.19;;;10.91;84.83
29239;BME280;16267;48.194;11.546;2022-10-31T07:10:36;96437.41;;;10.94;85.66
29239;BME280;16267;48.194;11.546;2022-10-31T07:13:05;96439.72;;;10.96;86.96
29239;BME280;16267;48.194;11.546;2022-10-31T07:15:37;96446.59;;;10.97;87.77
29239;BME280;16267;48.194;11.546;2022-10-31T07:18:05;96443.13;;;11.00;88.20
29239;BME280;16267;48.194;11.546;2022-10-31T07:20:32;96446.97;;;11.02;88.76
29239;BME280;16267;48.194;11.546;2022-10-31T07:22:58;96437.34;;;11.05;88.45
29239;BME280;16267;48.194;11.546;2022-10-31T07:25:24;96441.94;;;11.08;88.75
29239;BME280;16267;48.194;11.546;2022-10-31T07:27:50;96444.63;;;11.11;88.79
29239;BME280;16267;48.194;11.546;2022-10-31T07:30:16;96441.91;;;11.15;89.09
29239;BME280;16267;48.194;11.546;2022-10-31T07:32:45;96443.06;;;11.18;88.19
29239;BME280;16267;48.194;11.546;2022-10-31T07:35:21;96441.09;;;11.22;88.79
29239;BME280;16267;48.194;11.546;2022-10-31T07:37:48;96439.16;;;11.26;88.64
29239;BME280;16267;48.194;11.546;2022-10-31T07:40:14;96437.22;;;11.30;88.67
29239;BME280;16267;48.194;11.546;2022-10-31T07:42:42;96435.63;;;11.36;90.29
29239;BME280;16267;48.194;11.546;2022-10-31T07:45:11;96436.38;;;11.44;93.47
29239;BME280;16267;48.194;11.546;2022-10-31T07:47:52;96433.63;;;11.51;94.98
29239;BME280;16267;48.194;11.546;2022-10-31T07:50:27;96435.09;;;11.63;96.78
29239;BME280;16267;48.194;11.546;2022-10-31T07:53:04;96437.69;;;11.73;98.50
29239;BME280;16267;48.194;11.546;2022-10-31T07:55:31;96436.47;;;11.81;100.00
29239;BME280;16267;48.194;11.546;2022-10-31T07:57:59;96427.22;;;11.90;100.00
29239;BME280;16267;48.194;11.546;2022-10-31T08:00:25;96424.81;;;11.99;100.00
29239;BME280;16267;48.194;11.546;2022-10-31T08:02:59;96422.44;;;12.08;100.00
29239;BME280;16267;48.194;11.546;2022-10-31T08:05:26;96415.81;;;12.16;100.00
29239;BME280;16267;48.194;11.546;2022-10-31T08:07:51;96418.81;;;12.25;100.00
29239;BME280;16267;48.194;11.546;2022-10-31T08:10:17;96419.50;;;12.33;100.00
29239;BME280;16267;48.194;11.546;2022-10-31T08:12:43;96415.56;;;12.41;100.00
29239;BME280;16267;48.194;11.546;2022-10-31T08:15:09;96417.81;;;12.50;100.00
29239;BME280;16267;48.194;11.546;2022-10-31T08:17:36;96410.38;;;12.61;100.00
29239;BME280;16267;48.194;11.546;2022-10-31T08:20:04;96411.75;;;12.73;100.00
29239;BME280;16267;48.194;11.546;2022-10-31T08:22:29;96415.13;;;12.81;100.00
29239;BME280;16267;48.194;11.546;2022-10-31T08:24:55;96406.13;;;12.91;100.00
29239;BME280;16267;48.194;11.546;2022-10-31T08:27:21;96408.19;;;13.10;100.00
29239;BME280;16267;48.194;11.546;2022-10-31T08:29:47;96404.69;;;13.13;100.00
29239;BME280;16267;48.194;11.546;2022-10-31T08:32:13;96402.66;;;13.21;100.00
29239;BME280;16267;48.194;11.546;2022-10-31T08:34:38;96395.97;;;13.33;100.00
29239;BME280;16267;48.194;11.546;2022-10-31T08:37:04;96395.13;;;13.39;100.00
29239;BME280;16267;48.194;11.546;2022-10-31T08:39:30;96388.03;;;13.49;100.00
29239;BME280;16267;48.194;11.546;2022-10-31T08:41:55;96388.28;;;13.58;100.00
29239;BME280;16267;48.194;11.546;2022-10-31T08:44:21;96388.50;;;13.68;100.00
29239;BME280;16267;48.194;11.546;2022-10-31T08:46:47;96390.31;;;13.74;100.00
29239;BME280;16267;48.194;11.546;2022-10-31T08:49:13;96381.38;;;13.81;100.00
29239;BME280;16267;48.194;11.546;2022-10-31T08:51:38;96380.75;;;13.93;100.00
29239;BME280;16267;48.194;11.546;2022-10-31T08:54:04;96370.81;;;14.10;100.00
29239;BME280;16267;48.194;11.546;2022-10-31T08:56:30;96371.88;;;14.16;100.00
29239;BME280;16267;48.194;11.546;2022-10-31T08:58:56;96375.63;;;14.22;100.00
29239;BME280;16267;48.194;11.546;2022-10-31T09:01:21;96372.38;;;14.31;100.00
29239;BME280;16267;48.194;11.546;2022-10-31T09:03:47;96370.31;;;14.39;100.00
29239;BME280;16267;48.194;11.546;2022-10-31T09:06:13;96359.78;;;14.44;100.00
29239;BME280;16267;48.194;11.546;2022-10-31T09:08:39;96358.88;;;14.51;100.00
29239;BME280;16267;48.194;11.546;2022-10-31T09:11:05;96354.88;;;14.59;100.00
29239;BME280;16267;48.194;11.546;2022-10-31T09:13:32;96353.91;;;14.69;100.00
29239;BME280;16267;48.194;11.546;2022-10-31T09:15:58;96358.31;;;14.80;100.00
29239;BME280;16267;48.194;11.546;2022-10-31T09:18:24;96353.47;;;14.91;99.34
29239;BME280;16267;48.194;11.546;2022-10-31T09:20:50;96345.94;;;14.99;98.46
29239;BME280;16267;48.194;11.546;2022-10-31T09:23:20;96350.34;;;15.09;97.24
29239;BME280;16267;48.194;11.546;2022-10-31T09:25:48;96337.44;;;15.16;97.09
29239;BME280;16267;48.194;11.546;2022-10-31T09:28:16;96339.22;;;15.23;95.97
29239;BME280;16267;48.194;11.546;2022-10-31T09:30:49;96334.75;;;15.33;96.05
29239;BME280;16267;48.194;11.546;2022-10-31T09:33:16;96329.91;;;15.40;94.27
29239;BME280;16267;48.194;11.546;2022-10-31T09:35:42;96332.88;;;15.46;92.50
29239;BME280;16267;48.194;11.546;2022-10-31T09:38:17;96329.59;;;15.55;90.96
29239;BME280;16267;48.194;11.546;2022-10-31T09:40:52;96328.66;;;15.61;89.35
29239;BME280;16267;48.194;11.546;2022-10-31T09:46:58;96321.28;;;15.78;87.32
29239;BME280;16267;48.194;11.546;2022-10-31T09:52:34;96324.81;;;15.92;84.58
29239;BME280;16267;48.194;11.546;2022-10-31T09:55:18;96328.97;;;15.96;83.53
29239;BME280;16267;48.194;11.546;2022-10-31T09:57:45;96312.97;;;16.02;82.59
29239;BME280;16267;48.194;11.546;2022-10-31T10:00:20;96318.16;;;16.09;82.05
29239;BME280;16267;48.194;11.546;2022-10-31T10:08:29;96317.59;;;16.31;80.85
29239;BME280;16267;48.194;11.546;2022-10-31T10:14:15;96315.22;;;16.45;78.87
29239;BME280;16267;48.194;11.546;2022-10-31T10:20:48;96308.44;;;16.66;77.92
29239;BME280;16267;48.194;11.546;2022-10-31T10:26:19;96312.19;;;16.85;75.77
29239;BME280;16267;48.194;11.546;2022-10-31T10:28:56;96305.38;;;16.93;75.07
29239;BME280;16267;48.194;11.546;2022-10-31T10:31:28;96314.78;;;17.02;74.67
29239;BME280;16267;48.194;11.546;2022-10-31T10:34:08;96307.19;;;17.09;73.74
29239;BME280;16267;48.194;11.546;2022-10-31T10:36:45;96298.72;;;17.20;73.05
29239;BME280;16267;48.194;11.546;2022-10-31T10:39:21;96298.84;;;17.29;72.70
29239;BME280;16267;48.194;11.546;2022-10-31T10:41:50;96291.94;;;17.37;72.45
29239;BME280;16267;48.194;11.546;2022-10-31T10:44:40;96289.34;;;17.47;71.89
29239;BME280;16267;48.194;11.546;2022-10-31T10:47:32;96293.34;;;17.55;71.54
29239;BME280;16267;48.194;11.546;2022-10-31T10:50:21;96286.47;;;17.63;70.56
29239;BME280;16267;48.194;11.546;2022-10-31T10:53:16;96283.50;;;17.70;70.30
29239;BME280;16267;48.194;11.546;2022-10-31T10:56:36;96291.09;;;17.75;69.20
29239;BME280;16267;48.194;11.546;2022-10-31T10:59:10;96282.75;;;17.82;69.49
29239;BME280;16267;48.194;11.546;2022-10-31T11:01:39;96278.28;;;17.89;69.39
29239;BME280;16267;48.194;11.546;2022-10-31T11:04:33;96275.44;;;17.92;68.67
29239;BME280;16267;48.194;11.546;2022-10-31T11:07:07;96262.03;;;17.98;68.33
29239;BME280;16267;48.194;11.546;2022-10-31T11:09:34;96271.91;;;18.04;68.02
29239;BME280;16267;48.194;11.546;2022-10-31T11:12:16;96265.59;;;18.08;67.83
29239;BME280;16267;48.194;11.546;2022-10-31T11:14:59;96268.94;;;18.12;67.68
29239;BME280;16267;48.194;11.546;2022-10-31T11:17:38;96264.13;;;18.16;68.39
29239;BME280;16267;48.194;11.546;2022-10-31T11:22:39;96250.59;;;18.25;69.21
29239;BME280;16267;48.194;11.546;2022-10-31T11:25:24;96250.47;;;18.28;68.30
29239;BME280;16267;48.194;11.546;2022-10-31T11:28:07;96255.31;;;18.34;68.17
29239;BME280;16267;48.194;11.546;2022-10-31T11:30:50;96243.13;;;18.38;67.25
29239;BME280;16267;48.194;11.546;2022-10-31T11:33:33;96237.41;;;18.45;68.16
29239;BME280;16267;48.194;11.546;2022-10-31T11:36:02;96240.31;;;18.51;67.65
29239;BME280;16267;48.194;11.546;2022-10-31T11:38:39;96232.03;;;18.55;66.63
29239;BME280;16267;48.194;11.546;2022-10-31T11:41:30;96231.47;;;18.60;66.10
29239;BME280;16267;48.194;11.546;2022-10-31T11:44:26;96223.78;;;18.67;66.15
29239;BME280;16267;48.194;11.546;2022-10-31T11:46:59;96222.00;;;18.73;65.37
29239;BME280;16267;48.194;11.546;2022-10-31T11:49:41;96219.03;;;18.81;65.77
29239;BME280;16267;48.194;11.546;2022-10-31T11:52:25;96210.28;;;18.86;63.63
29239;BME280;16267;48.194;11.546;2022-10-31T12:00:32;96205.34;;;19.03;60.93
29239;BME280;16267;48.194;11.546;2022-10-31T12:03:38;96199.31;;;19.08;58.95
29239;BME280;16267;48.194;11.546;2022-10-31T12:06:24;96200.38;;;19.10;57.48
29239;BME280;16267;48.194;11.546;2022-10-31T12:08:51;96198.56;;;19.16;57.67
29239;BME280;16267;48.194;11.546;2022-10-31T12:14:22;96189.34;;;19.23;56.85
29239;BME280;16267;48.194;11.546;2022-10-31T12:20:02;96190.69;;;19.28;56.41
29239;BME280;16267;48.194;11.546;2022-10-31T12:23:17;96196.47;;;19.30;57.28
29239;BME280;16267;48.194;11.546;2022-10-31T12:34:52;96185.56;;;19.30;56.68
29239;BME280;16267;48.194;11.546;2022-10-31T12:46:00;96173.63;;;19.36;57.43
29239;BME280;16267;48.194;11.546;2022-10-31T12:51:39;96160.31;;;19.38;57.92
29239;BME280;16267;48.194;11.546;2022-10-31T12:54:24;96155.47;;;19.43;59.25
29239;BME280;16267;48.194;11.546;2022-10-31T13:05:25;96141.56;;;19.50;58.45
29239;BME280;16267;48.194;11.546;2022-10-31T13:08:01;96138.69;;;19.53;58.59
29239;BME280;16267;48.194;11.546;2022-10-31T13:13:43;96135.03;;;19.56;58.03
29239;BME280;16267;48.194;11.546;2022-10-31T13:16:16;96134.59;;;19.58;58.27
29239;BME280;16267;48.194;11.546;2022-10-31T13:18:52;96134.16;;;19.59;58.64
29239;BME280;16267;48.194;11.546;2022-10-31T13:21:37;96124.78;;;19.60;59.40
29239;BME280;16267;48.194;11.546;2022-10-31T13:24:13;96125.84;;;19.63;59.90
29239;BME280;16267;48.194;11.546;2022-10-31T13:26:51;96123.84;;;19.64;59.35
29239;BME280;16267;48.194;11.546;2022-10-31T13:29:40;96117.97;;;19.65;59.25
29239;BME280;16267;48.194;11.546;2022-10-31T13:32:09;96112.53;;;19.65;59.75
29239;BME280;16267;48.194;11.546;2022-10-31T13:34:47;96111.00;;;19.64;60.09
29239;BME280;16267;48.194;11.546;2022-10-31T13:39:48;96104.78;;;19.64;61.08
29239;BME280;16267;48.194;11.546;2022-10-31T13:45:18;96116.91;;;19.63;61.47
29239;BME280;16267;48.194;11.546;2022-10-31T13:50:41;96106.47;;;19.61;62.07
29239;BME280;16267;48.194;11.546;2022-10-31T13:53:20;96101.50;;;19.59;62.38
29239;BME280;16267;48.194;11.546;2022-10-31T13:56:13;96103.44;;;19.59;62.40
29239;BME280;16267;48.194;11.546;2022-10-31T13:58:36;96106.63;;;19.57;62.40
29239;BME280;16267;48.194;11.546;2022-10-31T14:01:19;96107.06;;;19.56;62.58
29239;BME280;16267;48.194;11.546;2022-10-31T14:03:56;96100.88;;;19.55;62.65
29239;BME280;16267;48.194;11.546;2022-10-31T14:09:35;96104.06;;;19.54;63.11
29239;BME280;16267;48.194;11.546;2022-10-31T14:12:07;96093.94;;;19.54;63.17
29239;BME280;16267;48.194;11.546;2022-10-31T14:14:44;96091.22;;;19.54;63.31
29239;BME280;16267;48.194;11.546;2022-10-31T14:17:21;96086.97;;;19.53;64.49
29239;BME280;16267;48.194;11.546;2022-10-31T14:20:38;96090.47;;;19.54;65.81
29239;BME280;16267;48.194;11.546;2022-10-31T14:23:39;96082.00;;;19.52;66.62
29239;BME280;16267;48.194;11.546;2022-10-31T14:31:52;96072.28;;;19.51;68.40
29239;BME280;16267;48.194;11.546;2022-10-31T14:34:31;96071.53;;;19.50;68.85
29239;BME280;16267;48.194;11.546;2022-10-31T14:40:33;96061.56;;;19.47;69.33
29239;BME280;16267;48.194;11.546;2022-10-31T14:52:28;96065.38;;;19.41;71.31
29239;BME280;16267;48.194;11.546;2022-10-31T14:54:56;96056.91;;;19.38;71.86
29239;BME280;16267;48.194;11.546;2022-10-31T14:57:32;96041.81;;;19.37;72.09
29239;BME280;16267;48.194;11.546;2022-10-31T15:00:17;96052.38;;;19.35;72.40
29239;BME280;16267;48.194;11.546;2022-10-31T15:03:33;96052.81;;;19.34;72.78
29239;BME280;16267;48.194;11.546;2022-10-31T15:06:11;96045.13;;;19.32;73.45
29239;BME280;16267;48.194;11.546;2022-10-31T15:08:51;96046.78;;;19.30;73.49
29239;BME280;16267;48.194;11.546;2022-10-31T15:11:20;96048.00;;;19.29;73.94
29239;BME280;16267;48.194;11.546;2022-10-31T15:13:54;96040.28;;;19.27;74.12